sensor_id;sensor_type;location;lat;lon;timestamp;pressure;altitude;pressure_sealevel;temperature;humidity
42003;BME280;27693;50.506;30.832;2023-03-18T00:00:26;100696.12;;;4.68;79.26
42003;BME280;27693;50.506;30.832;2023-03-18T00:01:29;100697.03;;;4.59;79.11
42003;BME280;27693;50.506;30.832;2023-03-18T00:02:33;100699.66;;;4.47;79.00
42003;BME280;27693;50.506;30.832;2023-03-18T00:03:35;100700.52;;;4.52;79.16
42003;BME280;27693;50.506;30.832;2023-03-18T00:04:40;100697.94;;;4.49;79.10
42003;BME280;27693;50.506;30.832;2023-03-18T00:05:43;100700.45;;;4.60;79.15
42003;BME280;27693;50.506;30.832;2023-03-18T00:06:46;100703.84;;;4.70;79.10
42003;BME280;27693;50.506;30.832;2023-03-18T00:07:49;100702.16;;;4.62;78.70
42003;BME280;27693;50.506;30.832;2023-03-18T00:08:51;100703.05;;;4.55;78.57
42003;BME280;27693;50.506;30.832;2023-03-18T00:09:54;100693.61;;;4.54;78.84
42003;BME280;27693;50.506;30.832;2023-03-18T00:10:57;100702.19;;;4.59;78.85
42003;BME280;27693;50.506;30.832;2023-03-18T00:12:00;100698.72;;;4.63;78.86
42003;BME280;27693;50.506;30.832;2023-03-18T00:13:03;100702.20;;;4.53;78.87
42003;BME280;27693;50.506;30.832;2023-03-18T00:14:08;100702.28;;;4.42;78.95
42003;BME280;27693;50.506;30.832;2023-03-18T00:15:13;100698.00;;;4.37;79.18
42003;BME280;27693;50.506;30.832;2023-03-18T00:16:17;100700.55;;;4.43;79.46
42003;BME280;27693;50.506;30.832;2023-03-18T00:17:21;100695.36;;;4.49;79.40
42003;BME280;27693;50.506;30.832;2023-03-18T00:18:23;100698.86;;;4.39;79.32
42003;BME280;27693;50.506;30.832;2023-03-18T00:19:26;100700.55;;;4.46;79.58
42003;BME280;27693;50.506;30.832;2023-03-18T00:20:28;100692.80;;;4.47;79.91
42003;BME280;27693;50.506;30.832;2023-03-18T00:21:34;100696.25;;;4.42;79.51
42003;BME280;27693;50.506;30.832;2023-03-18T00:22:37;100691.13;;;4.32;79.50
42003;BME280;27693;50.506;30.832;2023-03-18T00:23:40;100693.67;;;4.42;79.57
42003;BME280;27693;50.506;30.832;2023-03-18T00:24:42;100694.50;;;4.47;79.54
42003;BME280;27693;50.506;30.832;2023-03-18T00:25:46;100686.77;;;4.47;79.48
42003;BME280;27693;50.506;30.832;2023-03-18T00:26:49;100694.55;;;4.42;79.61
42003;BME280;27693;50.506;30.832;2023-03-18T00:27:52;100686.83;;;4.38;79.51
42003;BME280;27693;50.506;30.832;2023-03-18T00:28:56;100694.52;;;4.45;79.53
42003;BME280;27693;50.506;30.832;2023-03-18T00:29:58;100693.70;;;4.39;79.60
42003;BME280;27693;50.506;30.832;2023-03-18T00:31:05;100692.83;;;4.41;79.72
42003;BME280;27693;50.506;30.832;2023-03-18T00:32:10;100693.66;;;4.46;79.42
42003;BME280;27693;50.506;30.832;2023-03-18T00:33:13;100691.89;;;4.53;79.28
42003;BME280;27693;50.506;30.832;2023-03-18T00:34:15;100701.37;;;4.48;79.08
42003;BME280;27693;50.506;30.832;2023-03-18T00:35:18;100695.33;;;4.55;78.98
42003;BME280;27693;50.506;30.832;2023-03-18T00:36:20;100701.35;;;4.56;78.86
42003;BME280;27693;50.506;30.832;2023-03-18T00:37:35;100690.17;;;4.58;78.72
42003;BME280;27693;50.506;30.832;2023-03-18T00:38:40;100697.17;;;4.31;78.75
42003;BME280;27693;50.506;30.832;2023-03-18T00:39:43;100695.45;;;4.30;79.06
42003;BME280;27693;50.506;30.832;2023-03-18T00:40:49;100706.62;;;4.25;79.29
42003;BME280;27693;50.506;30.832;2023-03-18T00:41:55;100704.06;;;4.23;79.42
42003;BME280;27693;50.506;30.832;2023-03-18T00:42:57;100710.95;;;4.15;79.56
42003;BME280;27693;50.506;30.832;2023-03-18T00:44:03;100706.66;;;4.15;79.76
42003;BME280;27693;50.506;30.832;2023-03-18T00:45:09;100707.55;;;4.07;80.10
42003;BME280;27693;50.506;30.832;2023-03-18T00:46:16;100707.57;;;4.04;80.25
42003;BME280;27693;50.506;30.832;2023-03-18T00:47:18;100712.72;;;4.00;80.85
42003;BME280;27693;50.506;30.832;2023-03-18T00:48:23;100700.72;;;3.93;80.49
42003;BME280;27693;50.506;30.832;2023-03-18T00:49:26;100714.48;;;3.83;80.82
42003;BME280;27693;50.506;30.832;2023-03-18T00:50:28;100705.89;;;3.87;81.00
42003;BME280;27693;50.506;30.832;2023-03-18T00:51:34;100707.59;;;3.85;81.70
42003;BME280;27693;50.506;30.832;2023-03-18T00:52:37;100692.16;;;3.85;81.33
42003;BME280;27693;50.506;30.832;2023-03-18T00:53:41;100711.07;;;3.65;81.81
42003;BME280;27693;50.506;30.832;2023-03-18T00:54:44;100707.66;;;3.63;82.00
42003;BME280;27693;50.506;30.832;2023-03-18T00:55:46;100707.63;;;3.68;81.86
42003;BME280;27693;50.506;30.832;2023-03-18T00:56:49;100697.36;;;3.70;83.20
42003;BME280;27693;50.506;30.832;2023-03-18T00:57:52;100703.34;;;3.70;82.23
42003;BME280;27693;50.506;30.832;2023-03-18T00:58:55;100706.77;;;3.74;81.79
42003;BME280;27693;50.506;30.832;2023-03-18T00:59:58;100702.48;;;3.73;81.60
42003;BME280;27693;50.506;30.832;2023-03-18T01:01:00;100703.34;;;3.72;82.13
42003;BME280;27693;50.506;30.832;2023-03-18T01:02:03;100711.08;;;3.68;81.72
42003;BME280;27693;50.506;30.832;2023-03-18T01:03:06;100715.36;;;3.71;81.45
42003;BME280;27693;50.506;30.832;2023-03-18T01:04:09;100712.80;;;3.70;81.26
42003;BME280;27693;50.506;30.832;2023-03-18T01:05:12;100702.52;;;3.63;81.11
42003;BME280;27693;50.506;30.832;2023-03-18T01:06:21;100712.79;;;3.66;81.10
42003;BME280;27693;50.506;30.832;2023-03-18T01:07:24;100711.08;;;3.59;81.38
42003;BME280;27693;50.506;30.832;2023-03-18T01:08:27;100712.80;;;3.65;82.23
42003;BME280;27693;50.506;30.832;2023-03-18T01:09:31;100711.09;;;3.53;81.57
42003;BME280;27693;50.506;30.832;2023-03-18T01:10:33;100714.52;;;3.52;81.42
42003;BME280;27693;50.506;30.832;2023-03-18T01:11:37;100717.95;;;3.39;81.42
42003;BME280;27693;50.506;30.832;2023-03-18T01:12:39;100723.97;;;3.34;81.58
42003;BME280;27693;50.506;30.832;2023-03-18T01:13:43;100722.25;;;3.38;81.67
42003;BME280;27693;50.506;30.832;2023-03-18T01:14:46;100709.39;;;3.27;82.08
42003;BME280;27693;50.506;30.832;2023-03-18T01:15:50;100709.39;;;3.27;82.08
42003;BME280;27693;50.506;30.832;2023-03-18T01:16:52;100723.12;;;3.29;82.35
42003;BME280;27693;50.506;30.832;2023-03-18T01:17:54;100718.81;;;3.31;82.71
42003;BME280;27693;50.506;30.832;2023-03-18T01:18:58;100724.83;;;3.44;82.72
42003;BME280;27693;50.506;30.832;2023-03-18T01:20:02;100727.39;;;3.50;82.04
42003;BME280;27693;50.506;30.832;2023-03-18T01:21:05;100731.69;;;3.50;82.27
42003;BME280;27693;50.506;30.832;2023-03-18T01:22:09;100732.52;;;3.54;82.62
42003;BME280;27693;50.506;30.832;2023-03-18T01:23:14;100723.95;;;3.58;82.12
42003;BME280;27693;50.506;30.832;2023-03-18T01:24:17;100728.24;;;3.60;81.38
42003;BME280;27693;50.506;30.832;2023-03-18T01:25:19;100725.67;;;3.63;81.28
42003;BME280;27693;50.506;30.832;2023-03-18T01:26:25;100726.53;;;3.62;81.17
42003;BME280;27693;50.506;30.832;2023-03-18T01:27:30;100720.51;;;3.71;80.99
42003;BME280;27693;50.506;30.832;2023-03-18T01:28:33;100726.52;;;3.65;80.67
42003;BME280;27693;50.506;30.832;2023-03-18T01:29:37;100721.36;;;3.65;80.73
42003;BME280;27693;50.506;30.832;2023-03-18T01:30:41;100725.66;;;3.62;80.53
42003;BME280;27693;50.506;30.832;2023-03-18T01:31:45;100728.24;;;3.70;80.28
42003;BME280;27693;50.506;30.832;2023-03-18T01:32:49;100729.08;;;3.70;80.30
42003;BME280;27693;50.506;30.832;2023-03-18T01:33:52;100732.53;;;3.71;80.91
42003;BME280;27693;50.506;30.832;2023-03-18T01:34:56;100735.11;;;3.61;80.44
42003;BME280;27693;50.506;30.832;2023-03-18T01:36:00;100739.40;;;3.62;80.32
42003;BME280;27693;50.506;30.832;2023-03-18T01:37:05;100731.66;;;3.65;80.51
42003;BME280;27693;50.506;30.832;2023-03-18T01:38:09;100739.39;;;3.68;80.40
42003;BME280;27693;50.506;30.832;2023-03-18T01:39:11;100732.52;;;3.63;80.17
42003;BME280;27693;50.506;30.832;2023-03-18T01:40:15;100732.52;;;3.64;80.03
42003;BME280;27693;50.506;30.832;2023-03-18T01:41:19;100735.11;;;3.61;79.95
42003;BME280;27693;50.506;30.832;2023-03-18T01:42:22;100734.22;;;3.72;80.12
42003;BME280;27693;50.506;30.832;2023-03-18T01:43:30;100738.50;;;3.79;80.19
42003;BME280;27693;50.506;30.832;2023-03-18T01:44:33;100731.65;;;3.72;79.83
42003;BME280;27693;50.506;30.832;2023-03-18T01:45:37;100738.52;;;3.73;80.14
42003;BME280;27693;50.506;30.832;2023-03-18T01:46:42;100738.52;;;3.73;79.98
42003;BME280;27693;50.506;30.832;2023-03-18T01:47:49;100737.67;;;3.67;80.16
42003;BME280;27693;50.506;30.832;2023-03-18T01:48:52;100742.82;;;3.67;79.85
42003;BME280;27693;50.506;30.832;2023-03-18T01:49:57;100741.09;;;3.76;79.86
42003;BME280;27693;50.506;30.832;2023-03-18T01:51:03;100738.52;;;3.76;80.18
42003;BME280;27693;50.506;30.832;2023-03-18T01:52:10;100741.09;;;3.73;79.61
42003;BME280;27693;50.506;30.832;2023-03-18T01:53:15;100738.53;;;3.70;79.57
42003;BME280;27693;50.506;30.832;2023-03-18T01:54:18;100745.38;;;3.74;79.40
42003;BME280;27693;50.506;30.832;2023-03-18T01:55:24;100746.23;;;3.73;80.03
42003;BME280;27693;50.506;30.832;2023-03-18T01:56:27;100740.25;;;3.71;79.58
42003;BME280;27693;50.506;30.832;2023-03-18T01:57:31;100747.95;;;3.69;80.17
42003;BME280;27693;50.506;30.832;2023-03-18T01:58:43;100742.80;;;3.69;80.08
42003;BME280;27693;50.506;30.832;2023-03-18T01:59:49;100738.53;;;3.70;79.66
42003;BME280;27693;50.506;30.832;2023-03-18T02:01:03;100750.54;;;3.67;79.63
42003;BME280;27693;50.506;30.832;2023-03-18T02:02:09;100747.09;;;3.72;79.37
42003;BME280;27693;50.506;30.832;2023-03-18T02:03:12;100746.23;;;3.73;79.08
42003;BME280;27693;50.506;30.832;2023-03-18T02:04:20;100751.39;;;3.66;79.04
42003;BME280;27693;50.506;30.832;2023-03-18T02:05:26;100742.82;;;3.67;81.51
42003;BME280;27693;50.506;30.832;2023-03-18T02:06:29;100748.81;;;3.66;80.88
42003;BME280;27693;50.506;30.832;2023-03-18T02:07:35;100749.68;;;3.59;80.17
42003;BME280;27693;50.506;30.832;2023-03-18T02:08:38;100742.83;;;3.61;79.60
42003;BME280;27693;50.506;30.832;2023-03-18T02:09:43;100749.69;;;3.36;79.73
42003;BME280;27693;50.506;30.832;2023-03-18T02:10:46;100747.95;;;3.30;79.60
42003;BME280;27693;50.506;30.832;2023-03-18T02:11:51;100757.41;;;3.36;79.71
42003;BME280;27693;50.506;30.832;2023-03-18T02:12:57;100753.98;;;3.35;79.88
42003;BME280;27693;50.506;30.832;2023-03-18T02:14:04;100752.25;;;3.31;80.01
42003;BME280;27693;50.506;30.832;2023-03-18T02:15:11;100748.83;;;3.25;80.14
42003;BME280;27693;50.506;30.832;2023-03-18T02:17:04;100751.41;;;3.35;80.42
42003;BME280;27693;50.506;30.832;2023-03-18T02:18:14;100757.39;;;3.25;80.88
42003;BME280;27693;50.506;30.832;2023-03-18T02:20:47;100761.67;;;3.28;80.95
42003;BME280;27693;50.506;30.832;2023-03-18T02:22:13;100755.67;;;3.23;80.62
42003;BME280;27693;50.506;30.832;2023-03-18T02:23:20;100765.97;;;3.29;80.95
42003;BME280;27693;50.506;30.832;2023-03-18T02:24:34;100757.41;;;3.22;80.75
42003;BME280;27693;50.506;30.832;2023-03-18T02:25:49;100754.81;;;3.20;80.90
42003;BME280;27693;50.506;30.832;2023-03-18T02:28:13;100755.67;;;3.18;80.91
42003;BME280;27693;50.506;30.832;2023-03-18T02:29:17;100762.53;;;3.27;81.27
42003;BME280;27693;50.506;30.832;2023-03-18T02:30:32;100762.55;;;3.34;81.68
42003;BME280;27693;50.506;30.832;2023-03-18T02:31:38;100761.69;;;3.32;80.80
42003;BME280;27693;50.506;30.832;2023-03-18T02:32:44;100759.98;;;3.34;81.12
42003;BME280;27693;50.506;30.832;2023-03-18T02:33:48;100752.27;;;3.22;80.41
42003;BME280;27693;50.506;30.832;2023-03-18T02:34:53;100758.24;;;3.24;81.01
42003;BME280;27693;50.506;30.832;2023-03-18T02:36:03;100756.55;;;3.31;80.85
42003;BME280;27693;50.506;30.832;2023-03-18T02:37:08;100764.26;;;3.45;81.07
42003;BME280;27693;50.506;30.832;2023-03-18T02:38:12;100759.13;;;3.53;80.63
42003;BME280;27693;50.506;30.832;2023-03-18T02:39:15;100755.69;;;3.50;79.83
42003;BME280;27693;50.506;30.832;2023-03-18T02:40:31;100766.00;;;3.43;79.85
42003;BME280;27693;50.506;30.832;2023-03-18T02:41:29;100759.97;;;3.44;80.05
42003;BME280;27693;50.506;30.832;2023-03-18T02:42:33;100762.53;;;3.44;80.25
42003;BME280;27693;50.506;30.832;2023-03-18T02:43:36;100767.68;;;3.44;80.29
42003;BME280;27693;50.506;30.832;2023-03-18T02:44:43;100758.27;;;3.57;80.66
42003;BME280;27693;50.506;30.832;2023-03-18T02:47:45;100763.41;;;3.67;80.15
42003;BME280;27693;50.506;30.832;2023-03-18T02:48:50;100760.82;;;3.64;79.08
42003;BME280;27693;50.506;30.832;2023-03-18T02:49:54;100765.98;;;3.67;79.37
42003;BME280;27693;50.506;30.832;2023-03-18T02:50:59;100760.84;;;3.77;79.24
42003;BME280;27693;50.506;30.832;2023-03-18T02:52:03;100767.69;;;3.81;79.40
42003;BME280;27693;50.506;30.832;2023-03-18T02:53:06;100775.39;;;3.78;79.15
42003;BME280;27693;50.506;30.832;2023-03-18T02:54:12;100765.12;;;3.70;78.66
42003;BME280;27693;50.506;30.832;2023-03-18T02:55:16;100769.41;;;3.66;78.84
42003;BME280;27693;50.506;30.832;2023-03-18T02:56:19;100770.28;;;3.73;79.28
42003;BME280;27693;50.506;30.832;2023-03-18T02:57:22;100767.70;;;3.68;78.98
42003;BME280;27693;50.506;30.832;2023-03-18T02:58:24;100769.40;;;3.73;79.40
42003;BME280;27693;50.506;30.832;2023-03-18T02:59:29;100771.14;;;3.71;79.24
42003;BME280;27693;50.506;30.832;2023-03-18T03:00:34;100767.69;;;3.65;79.08
42003;BME280;27693;50.506;30.832;2023-03-18T03:01:40;100766.83;;;3.73;79.61
42003;BME280;27693;50.506;30.832;2023-03-18T03:02:43;100765.13;;;3.73;79.24
42003;BME280;27693;50.506;30.832;2023-03-18T03:03:46;100766.84;;;3.65;78.77
42003;BME280;27693;50.506;30.832;2023-03-18T03:04:49;100764.28;;;3.63;79.04
42003;BME280;27693;50.506;30.832;2023-03-18T03:05:53;100767.69;;;3.65;79.28
42003;BME280;27693;50.506;30.832;2023-03-18T03:06:56;100767.67;;;3.78;79.64
42003;BME280;27693;50.506;30.832;2023-03-18T03:08:07;100767.68;;;3.90;79.78
42003;BME280;27693;50.506;30.832;2023-03-18T03:09:14;100770.25;;;3.92;78.84
42003;BME280;27693;50.506;30.832;2023-03-18T03:10:18;100769.41;;;3.91;78.46
42003;BME280;27693;50.506;30.832;2023-03-18T03:11:21;100765.95;;;3.91;78.17
42003;BME280;27693;50.506;30.832;2023-03-18T03:12:25;100765.98;;;3.83;78.09
42003;BME280;27693;50.506;30.832;2023-03-18T03:13:30;100769.41;;;3.76;78.42
42003;BME280;27693;50.506;30.832;2023-03-18T03:14:33;100774.55;;;3.82;78.68
42003;BME280;27693;50.506;30.832;2023-03-18T03:15:39;100770.23;;;3.93;78.53
42003;BME280;27693;50.506;30.832;2023-03-18T03:16:42;100775.38;;;3.95;78.41
42003;BME280;27693;50.506;30.832;2023-03-18T03:17:45;100773.67;;;3.95;78.90
42003;BME280;27693;50.506;30.832;2023-03-18T03:18:52;100770.23;;;3.93;78.53
42003;BME280;27693;50.506;30.832;2023-03-18T03:19:54;100771.09;;;4.05;78.90
42003;BME280;27693;50.506;30.832;2023-03-18T03:20:57;100771.06;;;4.17;78.56
42003;BME280;27693;50.506;30.832;2023-03-18T03:22:01;100769.34;;;4.16;78.06
42003;BME280;27693;50.506;30.832;2023-03-18T03:23:07;100780.47;;;4.30;78.06
42003;BME280;27693;50.506;30.832;2023-03-18T03:24:11;100774.45;;;4.33;78.07
42003;BME280;27693;50.506;30.832;2023-03-18T03:25:14;100773.56;;;4.32;77.71
42003;BME280;27693;50.506;30.832;2023-03-18T03:26:17;100776.14;;;4.32;77.35
42003;BME280;27693;50.506;30.832;2023-03-18T03:27:20;100776.15;;;4.36;77.52
42003;BME280;27693;50.506;30.832;2023-03-18T03:28:23;100774.43;;;4.35;77.10
42003;BME280;27693;50.506;30.832;2023-03-18T03:29:27;100777.86;;;4.34;77.49
42003;BME280;27693;50.506;30.832;2023-03-18T03:30:30;100771.00;;;4.39;78.02
42003;BME280;27693;50.506;30.832;2023-03-18T03:31:34;100778.73;;;4.31;77.28
42003;BME280;27693;50.506;30.832;2023-03-18T03:32:39;100784.78;;;4.25;77.36
42003;BME280;27693;50.506;30.832;2023-03-18T03:33:43;100783.04;;;4.27;77.33
42003;BME280;27693;50.506;30.832;2023-03-18T03:34:47;100779.61;;;4.28;77.24
42003;BME280;27693;50.506;30.832;2023-03-18T03:35:50;100780.48;;;4.29;77.51
42003;BME280;27693;50.506;30.832;2023-03-18T03:36:53;100772.72;;;4.37;77.60
42003;BME280;27693;50.506;30.832;2023-03-18T03:37:55;100778.74;;;4.26;76.89
42003;BME280;27693;50.506;30.832;2023-03-18T03:38:59;100786.53;;;4.11;77.05
42003;BME280;27693;50.506;30.832;2023-03-18T03:40:01;100779.67;;;4.04;77.53
42003;BME280;27693;50.506;30.832;2023-03-18T03:41:07;100779.70;;;3.91;77.42
42003;BME280;27693;50.506;30.832;2023-03-18T03:42:11;100779.69;;;3.88;77.77
42003;BME280;27693;50.506;30.832;2023-03-18T03:43:14;100787.41;;;3.94;78.71
42003;BME280;27693;50.506;30.832;2023-03-18T03:44:17;100795.12;;;4.00;78.40
42003;BME280;27693;50.506;30.832;2023-03-18T03:45:22;100789.94;;;4.13;78.61
42003;BME280;27693;50.506;30.832;2023-03-18T03:46:25;100783.94;;;4.22;78.17
42003;BME280;27693;50.506;30.832;2023-03-18T03:47:27;100777.90;;;4.26;78.14
42003;BME280;27693;50.506;30.832;2023-03-18T03:48:31;100796.77;;;4.31;77.94
42003;BME280;27693;50.506;30.832;2023-03-18T03:49:34;100789.89;;;4.35;77.85
42003;BME280;27693;50.506;30.832;2023-03-18T03:50:37;100790.73;;;4.38;77.61
42003;BME280;27693;50.506;30.832;2023-03-18T03:51:40;100785.59;;;4.38;77.57
42003;BME280;27693;50.506;30.832;2023-03-18T03:52:43;100791.61;;;4.39;77.32
42003;BME280;27693;50.506;30.832;2023-03-18T03:53:46;100786.41;;;4.51;77.27
42003;BME280;27693;50.506;30.832;2023-03-18T03:54:49;100794.16;;;4.50;77.02
42003;BME280;27693;50.506;30.832;2023-03-18T03:55:52;100795.05;;;4.38;76.31
42003;BME280;27693;50.506;30.832;2023-03-18T03:56:55;100786.46;;;4.39;76.59
42003;BME280;27693;50.506;30.832;2023-03-18T03:57:58;100798.47;;;4.41;76.60
42003;BME280;27693;50.506;30.832;2023-03-18T03:59:01;100788.17;;;4.37;76.71
42003;BME280;27693;50.506;30.832;2023-03-18T04:00:11;100796.81;;;4.22;76.11
42003;BME280;27693;50.506;30.832;2023-03-18T04:01:20;100789.95;;;4.14;76.85
42003;BME280;27693;50.506;30.832;2023-03-18T04:02:24;100793.39;;;4.18;77.70
42003;BME280;27693;50.506;30.832;2023-03-18T04:03:30;100790.78;;;4.29;77.49
42003;BME280;27693;50.506;30.832;2023-03-18T04:04:32;100789.91;;;4.31;77.09
42003;BME280;27693;50.506;30.832;2023-03-18T04:05:36;100789.91;;;4.31;77.09
42003;BME280;27693;50.506;30.832;2023-03-18T04:06:39;100789.02;;;4.40;77.47
42003;BME280;27693;50.506;30.832;2023-03-18T04:07:43;100781.23;;;4.54;76.94
42003;BME280;27693;50.506;30.832;2023-03-18T04:08:46;100790.68;;;4.58;76.39
42003;BME280;27693;50.506;30.832;2023-03-18T04:09:48;100783.84;;;4.43;76.07
42003;BME280;27693;50.506;30.832;2023-03-18T04:10:51;100793.30;;;4.40;76.21
42003;BME280;27693;50.506;30.832;2023-03-18T04:11:54;100789.87;;;4.44;76.76
42003;BME280;27693;50.506;30.832;2023-03-18T04:12:57;100783.00;;;4.46;77.33
42003;BME280;27693;50.506;30.832;2023-03-18T04:13:59;100795.02;;;4.44;76.39
42003;BME280;27693;50.506;30.832;2023-03-18T04:15:03;100794.17;;;4.45;76.42
42003;BME280;27693;50.506;30.832;2023-03-18T04:16:08;100793.28;;;4.52;76.65
42003;BME280;27693;50.506;30.832;2023-03-18T04:17:12;100796.70;;;4.57;76.71
42003;BME280;27693;50.506;30.832;2023-03-18T04:18:15;100795.82;;;4.60;76.52
42003;BME280;27693;50.506;30.832;2023-03-18T04:19:18;100793.25;;;4.63;76.53
42003;BME280;27693;50.506;30.832;2023-03-18T04:20:21;100797.48;;;4.73;76.50
42003;BME280;27693;50.506;30.832;2023-03-18T04:21:24;100794.06;;;4.73;75.76
42003;BME280;27693;50.506;30.832;2023-03-18T04:22:28;100786.36;;;4.60;75.19
42003;BME280;27693;50.506;30.832;2023-03-18T04:23:31;100792.44;;;4.48;75.37
42003;BME280;27693;50.506;30.832;2023-03-18T04:24:35;100784.70;;;4.50;75.95
42003;BME280;27693;50.506;30.832;2023-03-18T04:25:38;100793.28;;;4.52;76.25
42003;BME280;27693;50.506;30.832;2023-03-18T04:26:41;100789.81;;;4.53;75.96
42003;BME280;27693;50.506;30.832;2023-03-18T04:27:43;100790.69;;;4.54;76.50
42003;BME280;27693;50.506;30.832;2023-03-18T04:28:47;100796.75;;;4.37;75.83
42003;BME280;27693;50.506;30.832;2023-03-18T04:29:50;100797.61;;;4.42;76.18
42003;BME280;27693;50.506;30.832;2023-03-18T04:30:53;100789.78;;;4.64;76.60
42003;BME280;27693;50.506;30.832;2023-03-18T04:31:56;100789.78;;;4.64;76.60
42003;BME280;27693;50.506;30.832;2023-03-18T04:33:01;100788.89;;;4.71;76.48
42003;BME280;27693;50.506;30.832;2023-03-18T04:34:05;100787.16;;;4.78;75.34
42003;BME280;27693;50.506;30.832;2023-03-18T04:35:10;100788.86;;;4.84;75.26
42003;BME280;27693;50.506;30.832;2023-03-18T04:36:13;100793.17;;;4.77;75.69
42003;BME280;27693;50.506;30.832;2023-03-18T04:37:16;100789.70;;;4.81;75.84
42003;BME280;27693;50.506;30.832;2023-03-18T04:38:21;100795.75;;;4.77;75.76
42003;BME280;27693;50.506;30.832;2023-03-18T04:39:26;100793.22;;;4.66;75.19
42003;BME280;27693;50.506;30.832;2023-03-18T04:40:28;100800.08;;;4.72;75.67
42003;BME280;27693;50.506;30.832;2023-03-18T04:41:33;100792.33;;;4.73;75.87
42003;BME280;27693;50.506;30.832;2023-03-18T04:42:38;100794.09;;;4.67;75.67
42003;BME280;27693;50.506;30.832;2023-03-18T04:43:42;100794.95;;;4.62;75.66
42003;BME280;27693;50.506;30.832;2023-03-18T04:44:46;100786.33;;;4.70;76.08
42003;BME280;27693;50.506;30.832;2023-03-18T04:45:49;100794.92;;;4.69;76.12
42003;BME280;27693;50.506;30.832;2023-03-18T04:46:52;100793.28;;;4.52;74.77
42003;BME280;27693;50.506;30.832;2023-03-18T04:47:55;100795.00;;;4.50;75.40
42003;BME280;27693;50.506;30.832;2023-03-18T04:48:58;100795.84;;;4.54;75.54
42003;BME280;27693;50.506;30.832;2023-03-18T04:50:03;100794.96;;;4.58;75.75
42003;BME280;27693;50.506;30.832;2023-03-18T04:51:06;100801.83;;;4.67;75.82
42003;BME280;27693;50.506;30.832;2023-03-18T04:52:10;100804.38;;;4.70;75.67
42003;BME280;27693;50.506;30.832;2023-03-18T04:53:13;100797.52;;;4.64;75.19
42003;BME280;27693;50.506;30.832;2023-03-18T04:54:16;100803.52;;;4.68;75.15
42003;BME280;27693;50.506;30.832;2023-03-18T04:55:19;100799.22;;;4.70;75.05
42003;BME280;27693;50.506;30.832;2023-03-18T04:56:24;100801.77;;;4.79;75.19
42003;BME280;27693;50.506;30.832;2023-03-18T04:57:27;100793.13;;;4.85;75.00
42003;BME280;27693;50.506;30.832;2023-03-18T04:58:30;100801.70;;;4.91;74.66
42003;BME280;27693;50.506;30.832;2023-03-18T04:59:35;100800.02;;;4.81;73.62
42003;BME280;27693;50.506;30.832;2023-03-18T05:00:39;100801.70;;;4.91;73.53
42003;BME280;27693;50.506;30.832;2023-03-18T05:01:44;100805.98;;;4.94;73.22
42003;BME280;27693;50.506;30.832;2023-03-18T05:02:48;100799.93;;;5.01;73.27
42003;BME280;27693;50.506;30.832;2023-03-18T05:03:52;100809.33;;;5.13;72.95
42003;BME280;27693;50.506;30.832;2023-03-18T05:04:56;100804.98;;;5.18;72.26
42003;BME280;27693;50.506;30.832;2023-03-18T05:05:59;100807.58;;;5.15;71.63
42003;BME280;27693;50.506;30.832;2023-03-18T05:07:03;100810.09;;;5.26;71.35
42003;BME280;27693;50.506;30.832;2023-03-18T05:08:08;100803.34;;;5.05;71.32
42003;BME280;27693;50.506;30.832;2023-03-18T05:09:11;100808.64;;;4.80;71.58
42003;BME280;27693;50.506;30.832;2023-03-18T05:10:15;100809.58;;;4.57;72.56
42003;BME280;27693;50.506;30.832;2023-03-18T05:11:19;100809.58;;;4.57;72.56
42003;BME280;27693;50.506;30.832;2023-03-18T05:12:22;100807.81;;;4.69;72.47
42003;BME280;27693;50.506;30.832;2023-03-18T05:13:27;100808.64;;;4.80;72.71
42003;BME280;27693;50.506;30.832;2023-03-18T05:14:29;100810.27;;;4.96;72.34
42003;BME280;27693;50.506;30.832;2023-03-18T05:15:33;100808.58;;;4.92;71.96
42003;BME280;27693;50.506;30.832;2023-03-18T05:16:36;100813.72;;;4.94;71.74
42003;BME280;27693;50.506;30.832;2023-03-18T05:17:40;100817.14;;;4.98;71.47
42003;BME280;27693;50.506;30.832;2023-03-18T05:18:43;100815.39;;;5.03;71.78
42003;BME280;27693;50.506;30.832;2023-03-18T05:19:47;100815.31;;;5.15;71.99
42003;BME280;27693;50.506;30.832;2023-03-18T05:20:52;100809.19;;;5.33;71.44
42003;BME280;27693;50.506;30.832;2023-03-18T05:21:56;100812.64;;;5.34;70.86
42003;BME280;27693;50.506;30.832;2023-03-18T05:22:59;100812.64;;;5.34;70.91
42003;BME280;27693;50.506;30.832;2023-03-18T05:24:20;100804.85;;;5.40;70.93
42003;BME280;27693;50.506;30.832;2023-03-18T05:25:23;100816.84;;;5.47;70.33
42003;BME280;27693;50.506;30.832;2023-03-18T05:26:26;100806.48;;;5.50;69.97
42003;BME280;27693;50.506;30.832;2023-03-18T05:27:30;100815.14;;;5.43;70.05
42003;BME280;27693;50.506;30.832;2023-03-18T05:28:38;100815.14;;;5.43;70.05
42003;BME280;27693;50.506;30.832;2023-03-18T05:29:43;100805.73;;;5.37;69.77
42003;BME280;27693;50.506;30.832;2023-03-18T05:30:51;100812.60;;;5.37;70.18
42003;BME280;27693;50.506;30.832;2023-03-18T05:31:54;100808.34;;;5.33;69.73
42003;BME280;27693;50.506;30.832;2023-03-18T05:32:57;100804.98;;;5.18;70.00
42003;BME280;27693;50.506;30.832;2023-03-18T05:34:02;100810.19;;;5.12;70.26
42003;BME280;27693;50.506;30.832;2023-03-18T05:35:09;100811.98;;;5.01;70.17
42003;BME280;27693;50.506;30.832;2023-03-18T05:36:18;100811.98;;;4.98;70.65
42003;BME280;27693;50.506;30.832;2023-03-18T05:37:28;100808.54;;;4.99;70.95
42003;BME280;27693;50.506;30.832;2023-03-18T05:38:33;100812.00;;;4.93;70.89
42003;BME280;27693;50.506;30.832;2023-03-18T05:39:37;100811.14;;;4.94;71.24
42003;BME280;27693;50.506;30.832;2023-03-18T05:40:41;100810.27;;;4.96;71.07
42003;BME280;27693;50.506;30.832;2023-03-18T05:41:52;100814.51;;;5.08;71.10